Lake Levels Lake Levels   »   United States   »   Texas
LAKES RIVERS MARINAS NEWS HOUSES EVENTS MAPS
1,681 Lakes:
Lake Store

Lake Levels in Texas, United States

Lake Name Current
Level
Full Pool +/-
Full Pool
Reading
Date - Time
Alan Henry (TX) 2,215.61 2,224.00 -8.39 1/24/2021  5:30 AM
Amistad (TX) 1,073.80 1,117.00 -43.20 1/24/2021  5:15 AM
Amon Carter (TX) 919.19 920.00 -0.81 1/24/2021  12:00 AM
Aquilla (TX) 536.47 537.50 -1.03 1/24/2021  4:30 AM
Arlington (TX) 546.67 550.00 -3.33 1/24/2021  12:00 AM
Arrowhead (TX) 925.93 926.00 -0.07 1/24/2021  12:00 AM
Athens (TX) 440.65 440.00 0.65 1/24/2021  5:30 AM
Austin (TX) 492.11 492.80 -0.69 1/24/2021  5:00 AM
Bardwell (TX) 421.38 421.00 0.38 1/24/2021  4:30 AM
Belton (TX) 593.47 594.00 -0.53 1/24/2021  5:00 AM
Benbrook (TX) 692.22 694.00 -1.78 1/24/2021  5:00 AM
Bob Sandlin (TX) 337.70 337.50 0.20 1/23/2021  9:43 AM
Bonham (TX) 564.82 565.00 -0.18 1/24/2021  12:00 AM
Brady Creek (TX) 1,737.91 1,743.00 -5.09 1/24/2021  5:45 AM
Bridgeport (TX) 832.22 836.00 -3.78 1/24/2021  5:00 AM
Brownwood (TX) 1,421.84 1,425.00 -3.16 1/24/2021  4:30 AM
Buchanan (TX) 1,013.40 1,020.50 -7.10 1/23/2021  10:05 AM
Caddo (LA TX) 170.60 168.50 2.10 1/23/2021  8:00 AM
Canyon (TX) 903.58 909.00 -5.42 1/23/2021  11:30 PM
Cedar Creek (TX) 322.04 322.00 0.04 1/24/2021  4:45 AM
Champion Creek (TX) 2,069.45 2,083.00 -13.55 1/23/2021  12:05 PM
Cherokee (TX) 280.35 280.00 0.35 1/24/2021  3:45 AM
Choke Canyon (TX) 198.25 220.50 -22.25 1/23/2021  7:30 AM
Cisco (TX) 1,516.88 1,520.00 -3.12 1/24/2021  5:30 AM
Coleman (TX) 1,714.50 1,718.00 -3.50 1/24/2021  5:30 AM
Coleto Creek (TX) 93.70 98.28 -4.58 1/24/2021  5:00 AM
Colorado City (TX) 2,053.61 2,070.20 -16.59 1/23/2021  12:05 PM
Conroe (TX) 201.13 201.00 0.13 1/24/2021  5:30 AM
Corpus Christi (TX) 86.72 94.00 -7.28 1/23/2021  10:01 AM
Cypress Springs (TX) 180.15 378.00 -197.85 1/23/2021  9:43 AM
E. V. Spence (TX) 1,857.58 1,898.00 -40.42 1/24/2021  12:00 AM
Eagle Mountain (TX) 647.50 649.00 -1.50 1/24/2021  3:00 AM
Falcon (TX) 261.58 301.20 -39.62 1/24/2021  4:15 AM
Fork (TX) 402.17 403.00 -0.83 1/24/2021  5:30 AM
Georgetown (TX) 779.75 791.00 -11.25 1/24/2021  4:00 AM
Graham (TX) 1,074.00 1,075.00 -1.00 1/24/2021  5:00 AM
Granbury (TX) 692.67 693.00 -0.33 1/24/2021  5:30 AM
Granger (TX) 503.53 504.00 -0.47 1/24/2021  12:00 AM
Grapevine (TX) 535.34 535.00 0.34 1/24/2021  5:45 AM
Hords Creek (TX) 1,890.70 1,900.00 -9.30 1/24/2021  12:30 AM
Houston (TX) 42.52 42.40 0.12 1/24/2021  3:30 AM
Hubbard Creek (TX) 1,180.94 1,183.00 -2.06 1/24/2021  12:15 AM
Hubert M Moss (TX) 714.76 715.00 -0.24 1/24/2021  12:15 AM
Inks (TX) 887.22 886.90 0.32 1/24/2021  4:00 AM
Jacksonville (TX) 422.17 422.00 0.17 1/24/2021  12:00 AM
JB Thomas (TX) 2,221.67 2,258.00 -36.33 1/24/2021  5:45 AM
Jim Chapman (TX) 438.64 440.00 -1.36 1/23/2021  9:43 AM
Joe Pool (TX) 520.58 522.00 -1.42 1/24/2021  5:00 AM
Kemp (TX) 1,142.01 1,144.00 -1.99 1/24/2021  4:15 AM
Kickapoo (TX) 1,042.16 1,045.00 -2.84 1/24/2021  4:00 AM
Lake O' the Pines (TX) 230.96 228.50 2.46 1/23/2021  9:43 AM
Lavon (TX) 492.10 492.00 0.10 1/24/2021  12:00 AM
Leon (TX) 1,373.77 1/24/2021  2:30 AM
Lewisville (TX) 522.23 522.00 0.23 1/24/2021  12:15 AM
Limestone (TX) 363.21 363.00 0.21 1/24/2021  4:45 AM
Livingston (TX) 130.97 131.00 -0.03 1/24/2021  12:00 AM
Lyndon B. Johnson (TX) 824.67 825.00 -0.33 1/23/2021  10:05 AM
MacKenzie (TX) 3,013.96 3,100.00 -86.04 1/24/2021  4:30 AM
Marble Falls (TX) 736.39 737.00 -0.61 1/23/2021  10:05 AM
Martin Creek (TX) 305.95 306.00 -0.05 1/24/2021  3:30 AM
Medina (TX) 1,031.62 1,062.00 -30.38 1/24/2021  5:00 AM
Meredith (TX) 2,885.36 2,941.00 -55.64 1/24/2021  5:30 AM
Mexia (TX) 448.46 448.30 0.16 1/24/2021  5:15 AM
Millers Creek (TX) 1,334.05 1,334.00 0.05 1/24/2021  12:00 AM
Mineral Wells (TX) 863.53 863.00 0.53 1/24/2021  11:30 AM
Moss Creek (TX) 2,327.97 2,337.00 -9.03 1/24/2021  5:45 AM
Murvaul (TX) 265.47 265.50 -0.03 1/23/2021  9:43 AM
Nacogdoches (TX) 277.14 279.00 -1.86 1/23/2021  9:43 AM
Natural Dam Salt (TX) 2,447.29 2,457.00 -9.71 1/24/2021  12:00 AM
Navarro Mills (TX) 424.60 424.50 0.10 1/24/2021  1:00 AM
Nocona (TX) 826.43 827.00 -0.57 1/24/2021  4:00 AM
O. C. Fisher (TX) 1,866.34 1,908.00 -41.66 1/24/2021  4:00 AM
O.H. Ivie (TX) 1,538.32 1,551.50 -13.18 1/24/2021  12:45 AM
Oak Creek (TX) 1,996.17 2,000.00 -3.83 1/24/2021  12:00 AM
Palestine (TX) 345.62 345.00 0.62 1/24/2021  4:00 AM
Palo Pinto (TX) 865.41 867.00 -1.59 1/24/2021  5:15 AM
Pat Cleburne (TX) 730.94 733.60 -2.66 1/24/2021  12:00 AM
Pat Mayse (TX) 451.97 451.00 0.97 1/23/2021  9:43 AM
Phantom Hill (TX) 1,633.79 1,635.90 -2.11 1/24/2021  5:30 AM
Possum Kingdom (TX) 998.61 1,000.00 -1.39 1/24/2021  5:30 AM
Proctor (TX) 1,161.66 1,162.00 -0.34 1/24/2021  5:30 AM
Ray Hubbard (TX) 435.50 435.50 -0.00 1/24/2021  5:45 AM
Ray Roberts (TX) 632.04 632.50 -0.46 1/24/2021  1:15 AM
Red Bluff (TX) 2,814.78 2,827.13 -12.35 1/24/2021  5:15 AM
Richland Chambers (TX) 315.09 315.00 0.09 1/24/2021  3:45 AM
Sam Rayburn (TX) 162.81 164.40 -1.59 1/24/2021  4:00 AM
Somerville (TX) 235.91 238.00 -2.09 1/24/2021  5:00 AM
Squaw Creek (TX) 775.45 775.00 0.45 1/24/2021  1:00 AM
Stamford (TX) 1,417.19 1,417.00 0.19 1/24/2021  3:30 AM
Steinhagen Reservoir (TX) 83.05 82.40 0.65 1/24/2021  5:00 AM
Stillhouse Hollow (TX) 622.72 622.00 0.72 1/24/2021  12:00 AM
Striker (TX) 292.96 292.93 0.03 1/24/2021  4:45 AM
Tawakoni (TX) 437.56 437.50 0.06 1/24/2021  5:15 AM
Texana (TX) 43.98 44.00 -0.02 1/24/2021  12:00 AM
Texoma (TX) 617.76 617.00 0.76 1/24/2021  3:00 AM
Toledo Bend (TX LA) 169.01 172.00 -2.99 1/24/2021  5:30 AM
Travis (TX) 659.18 681.00 -21.82 1/24/2021  5:00 AM
Twin Buttes (TX) 1,928.55 1,940.00 -11.45 1/24/2021  12:00 AM
Tyler (TX) 375.73 375.50 0.23 1/23/2021  9:43 AM
Waco (TX) 461.52 462.00 -0.48 1/24/2021  12:15 AM
Waxahachie (TX) 530.36 1/24/2021  12:00 AM
Weatherford (TX) 894.44 896.00 -1.56 1/24/2021  12:45 AM
White River (TX) 2,347.27 1/24/2021  4:15 AM
Whitney (TX) 530.64 533.00 -2.36 1/24/2021  12:15 AM
Worth (TX) 592.11 594.00 -1.89 1/24/2021  4:00 AM
Wright Patman (TX) 230.17 220.60 9.57 1/23/2021  9:43 AM


CURRENT DAILY STREAMFLOW CONDITIONS
High
90th percentile
75th - 89th percentile
25th - 74th percentile
10th - 24th percentile
10th percentile
Low
Not ranked

The colored dots on this map depict streamflow conditions as a percentile, which is computed from the period of record for the current day of the year. Only stations with at least 30 years of record are used. The gray circles indicate other stations that were not ranked in percentiles either because they have fewer than 30 years of record or because they report parameters other than streamflow. Some stations, for example, measure stage only.
U.S. Daily Streamflow Conditions



U.S. Drought Monitor